sensor_id;sensor_type;location;lat;lon;timestamp;temperature;humidity
58809;DHT22;44579;51.672;7.834;2023-05-07T00:01:48;15.70;69.50
58809;DHT22;44579;51.672;7.834;2023-05-07T00:04:15;15.70;69.50
58809;DHT22;44579;51.672;7.834;2023-05-07T00:06:42;15.70;69.50
58809;DHT22;44579;51.672;7.834;2023-05-07T00:09:09;15.60;70.00
58809;DHT22;44579;51.672;7.834;2023-05-07T00:11:35;15.60;69.70
58809;DHT22;44579;51.672;7.834;2023-05-07T00:14:03;15.60;69.70
58809;DHT22;44579;51.672;7.834;2023-05-07T00:16:30;15.60;69.80
58809;DHT22;44579;51.672;7.834;2023-05-07T00:18:57;15.50;69.80
58809;DHT22;44579;51.672;7.834;2023-05-07T00:21:24;15.60;69.80
58809;DHT22;44579;51.672;7.834;2023-05-07T00:23:53;15.60;69.70
58809;DHT22;44579;51.672;7.834;2023-05-07T00:26:20;15.50;69.70
58809;DHT22;44579;51.672;7.834;2023-05-07T00:28:49;15.60;69.70
58809;DHT22;44579;51.672;7.834;2023-05-07T00:31:16;15.60;69.70
58809;DHT22;44579;51.672;7.834;2023-05-07T00:33:43;15.50;69.70
58809;DHT22;44579;51.672;7.834;2023-05-07T00:36:10;15.50;69.80
58809;DHT22;44579;51.672;7.834;2023-05-07T00:38:37;15.50;69.70
58809;DHT22;44579;51.672;7.834;2023-05-07T00:41:04;15.50;69.80
58809;DHT22;44579;51.672;7.834;2023-05-07T00:43:31;15.50;69.70
58809;DHT22;44579;51.672;7.834;2023-05-07T00:45:59;15.60;69.80
58809;DHT22;44579;51.672;7.834;2023-05-07T00:48:26;15.50;69.80
58809;DHT22;44579;51.672;7.834;2023-05-07T00:50:53;15.50;69.80
58809;DHT22;44579;51.672;7.834;2023-05-07T00:53:20;15.60;69.90
58809;DHT22;44579;51.672;7.834;2023-05-07T00:55:49;15.50;69.90
58809;DHT22;44579;51.672;7.834;2023-05-07T00:58:16;15.50;70.10
58809;DHT22;44579;51.672;7.834;2023-05-07T01:00:44;15.50;70.10
58809;DHT22;44579;51.672;7.834;2023-05-07T01:03:10;15.50;70.10
58809;DHT22;44579;51.672;7.834;2023-05-07T01:05:38;15.50;70.00
58809;DHT22;44579;51.672;7.834;2023-05-07T01:08:05;15.50;70.00
58809;DHT22;44579;51.672;7.834;2023-05-07T01:10:32;15.50;70.10
58809;DHT22;44579;51.672;7.834;2023-05-07T01:12:59;15.50;70.10
58809;DHT22;44579;51.672;7.834;2023-05-07T01:15:27;15.50;70.20
58809;DHT22;44579;51.672;7.834;2023-05-07T01:17:56;15.40;70.20
58809;DHT22;44579;51.672;7.834;2023-05-07T01:20:30;15.40;70.20
58809;DHT22;44579;51.672;7.834;2023-05-07T01:22:57;15.40;70.30
58809;DHT22;44579;51.672;7.834;2023-05-07T01:25:26;15.40;70.40
58809;DHT22;44579;51.672;7.834;2023-05-07T01:27:57;15.40;70.50
58809;DHT22;44579;51.672;7.834;2023-05-07T01:30:28;15.30;70.40
58809;DHT22;44579;51.672;7.834;2023-05-07T01:33:08;15.30;70.50
58809;DHT22;44579;51.672;7.834;2023-05-07T01:35:39;15.30;70.50
58809;DHT22;44579;51.672;7.834;2023-05-07T01:38:06;15.30;70.50
58809;DHT22;44579;51.672;7.834;2023-05-07T01:40:34;15.30;70.50
58809;DHT22;44579;51.672;7.834;2023-05-07T01:43:02;15.30;70.50
58809;DHT22;44579;51.672;7.834;2023-05-07T01:45:29;15.30;70.50
58809;DHT22;44579;51.672;7.834;2023-05-07T01:47:57;15.30;70.70
58809;DHT22;44579;51.672;7.834;2023-05-07T01:50:25;15.30;70.70
58809;DHT22;44579;51.672;7.834;2023-05-07T01:52:52;15.30;70.70
58809;DHT22;44579;51.672;7.834;2023-05-07T01:55:19;15.30;70.70
58809;DHT22;44579;51.672;7.834;2023-05-07T01:57:46;15.30;70.70
58809;DHT22;44579;51.672;7.834;2023-05-07T02:00:13;15.30;70.60
58809;DHT22;44579;51.672;7.834;2023-05-07T02:02:44;15.30;70.60
58809;DHT22;44579;51.672;7.834;2023-05-07T02:05:23;15.30;70.70
58809;DHT22;44579;51.672;7.834;2023-05-07T02:07:57;15.30;70.80
58809;DHT22;44579;51.672;7.834;2023-05-07T02:10:26;15.30;70.90
58809;DHT22;44579;51.672;7.834;2023-05-07T02:12:53;15.20;70.90
58809;DHT22;44579;51.672;7.834;2023-05-07T02:15:20;15.30;70.90
58809;DHT22;44579;51.672;7.834;2023-05-07T02:18:06;15.30;71.00
58809;DHT22;44579;51.672;7.834;2023-05-07T02:20:33;15.20;70.90
58809;DHT22;44579;51.672;7.834;2023-05-07T02:23:01;15.20;71.00
58809;DHT22;44579;51.672;7.834;2023-05-07T02:25:29;15.30;71.10
58809;DHT22;44579;51.672;7.834;2023-05-07T02:27:57;15.20;71.00
58809;DHT22;44579;51.672;7.834;2023-05-07T02:30:36;15.20;71.10
58809;DHT22;44579;51.672;7.834;2023-05-07T02:33:04;15.20;71.30
58809;DHT22;44579;51.672;7.834;2023-05-07T02:35:32;15.20;71.30
58809;DHT22;44579;51.672;7.834;2023-05-07T02:37:58;15.20;71.30
58809;DHT22;44579;51.672;7.834;2023-05-07T02:40:25;15.20;71.30
58809;DHT22;44579;51.672;7.834;2023-05-07T02:42:52;15.10;71.30
58809;DHT22;44579;51.672;7.834;2023-05-07T02:45:19;15.10;71.30
58809;DHT22;44579;51.672;7.834;2023-05-07T02:47:49;15.00;71.40
58809;DHT22;44579;51.672;7.834;2023-05-07T02:50:16;14.90;71.50
58809;DHT22;44579;51.672;7.834;2023-05-07T02:52:43;15.00;71.60
58809;DHT22;44579;51.672;7.834;2023-05-07T02:55:09;14.90;71.70
58809;DHT22;44579;51.672;7.834;2023-05-07T02:57:37;14.90;71.70
58809;DHT22;44579;51.672;7.834;2023-05-07T03:00:15;14.90;71.90
58809;DHT22;44579;51.672;7.834;2023-05-07T03:02:50;14.90;72.00
58809;DHT22;44579;51.672;7.834;2023-05-07T03:05:17;14.90;71.90
58809;DHT22;44579;51.672;7.834;2023-05-07T03:07:44;15.00;71.90
58809;DHT22;44579;51.672;7.834;2023-05-07T03:10:13;14.90;71.70
58809;DHT22;44579;51.672;7.834;2023-05-07T03:12:40;15.00;71.80
58809;DHT22;44579;51.672;7.834;2023-05-07T03:15:09;14.90;71.70
58809;DHT22;44579;51.672;7.834;2023-05-07T03:17:38;14.90;71.70
58809;DHT22;44579;51.672;7.834;2023-05-07T03:20:05;14.80;72.00
58809;DHT22;44579;51.672;7.834;2023-05-07T03:22:32;14.80;72.30
58809;DHT22;44579;51.672;7.834;2023-05-07T03:24:59;14.80;72.40
58809;DHT22;44579;51.672;7.834;2023-05-07T03:27:26;14.70;72.20
58809;DHT22;44579;51.672;7.834;2023-05-07T03:29:53;14.70;72.30
58809;DHT22;44579;51.672;7.834;2023-05-07T03:32:20;14.70;72.20
58809;DHT22;44579;51.672;7.834;2023-05-07T03:34:48;14.70;72.10
58809;DHT22;44579;51.672;7.834;2023-05-07T03:37:15;14.60;72.10
58809;DHT22;44579;51.672;7.834;2023-05-07T03:39:42;14.60;72.20
58809;DHT22;44579;51.672;7.834;2023-05-07T03:42:10;14.60;72.30
58809;DHT22;44579;51.672;7.834;2023-05-07T03:44:37;14.60;72.30
58809;DHT22;44579;51.672;7.834;2023-05-07T03:47:04;14.60;72.40
58809;DHT22;44579;51.672;7.834;2023-05-07T03:49:33;14.50;72.30
58809;DHT22;44579;51.672;7.834;2023-05-07T03:52:01;14.50;72.30
58809;DHT22;44579;51.672;7.834;2023-05-07T03:54:29;14.50;72.20
58809;DHT22;44579;51.672;7.834;2023-05-07T03:57:01;14.50;72.30
58809;DHT22;44579;51.672;7.834;2023-05-07T03:59:28;14.60;72.30
58809;DHT22;44579;51.672;7.834;2023-05-07T04:01:58;14.60;72.30
58809;DHT22;44579;51.672;7.834;2023-05-07T04:04:30;14.60;72.20
58809;DHT22;44579;51.672;7.834;2023-05-07T04:07:00;14.60;72.20
58809;DHT22;44579;51.672;7.834;2023-05-07T04:09:30;14.60;72.20
58809;DHT22;44579;51.672;7.834;2023-05-07T04:12:06;14.60;72.20
58809;DHT22;44579;51.672;7.834;2023-05-07T04:14:34;14.60;72.20
58809;DHT22;44579;51.672;7.834;2023-05-07T04:17:01;14.60;72.30
58809;DHT22;44579;51.672;7.834;2023-05-07T04:19:30;14.60;72.30
58809;DHT22;44579;51.672;7.834;2023-05-07T04:21:56;14.60;72.30
58809;DHT22;44579;51.672;7.834;2023-05-07T04:24:24;14.60;72.30
58809;DHT22;44579;51.672;7.834;2023-05-07T04:26:51;14.60;72.40
58809;DHT22;44579;51.672;7.834;2023-05-07T04:29:20;14.60;72.50
58809;DHT22;44579;51.672;7.834;2023-05-07T04:31:55;14.60;72.60
58809;DHT22;44579;51.672;7.834;2023-05-07T04:34:26;14.60;72.60
58809;DHT22;44579;51.672;7.834;2023-05-07T04:36:53;14.60;72.60
58809;DHT22;44579;51.672;7.834;2023-05-07T04:39:23;14.60;72.80
58809;DHT22;44579;51.672;7.834;2023-05-07T04:41:50;14.60;72.70
58809;DHT22;44579;51.672;7.834;2023-05-07T04:44:16;14.60;72.80
58809;DHT22;44579;51.672;7.834;2023-05-07T04:46:48;14.60;72.80
58809;DHT22;44579;51.672;7.834;2023-05-07T04:49:15;14.60;72.90
58809;DHT22;44579;51.672;7.834;2023-05-07T04:51:43;14.60;72.90
58809;DHT22;44579;51.672;7.834;2023-05-07T04:54:12;14.60;72.80
58809;DHT22;44579;51.672;7.834;2023-05-07T04:56:43;14.70;72.90
58809;DHT22;44579;51.672;7.834;2023-05-07T04:59:12;14.70;72.90
58809;DHT22;44579;51.672;7.834;2023-05-07T05:01:46;14.70;72.90
58809;DHT22;44579;51.672;7.834;2023-05-07T05:04:17;14.70;72.80
58809;DHT22;44579;51.672;7.834;2023-05-07T05:06:44;14.70;72.90
58809;DHT22;44579;51.672;7.834;2023-05-07T05:09:13;14.80;73.10
58809;DHT22;44579;51.672;7.834;2023-05-07T05:11:41;14.70;73.30
58809;DHT22;44579;51.672;7.834;2023-05-07T05:14:08;14.70;73.40
58809;DHT22;44579;51.672;7.834;2023-05-07T05:16:35;14.70;73.60
58809;DHT22;44579;51.672;7.834;2023-05-07T05:19:05;14.70;73.80
58809;DHT22;44579;51.672;7.834;2023-05-07T05:21:35;14.80;73.70
58809;DHT22;44579;51.672;7.834;2023-05-07T05:24:08;14.80;73.70
58809;DHT22;44579;51.672;7.834;2023-05-07T05:26:35;14.90;73.70
58809;DHT22;44579;51.672;7.834;2023-05-07T05:29:04;15.00;73.80
58809;DHT22;44579;51.672;7.834;2023-05-07T05:31:31;15.00;73.80
58809;DHT22;44579;51.672;7.834;2023-05-07T05:34:02;15.10;73.70
58809;DHT22;44579;51.672;7.834;2023-05-07T05:36:29;15.20;73.90
58809;DHT22;44579;51.672;7.834;2023-05-07T05:39:03;15.20;74.40
58809;DHT22;44579;51.672;7.834;2023-05-07T05:41:31;15.20;74.80
58809;DHT22;44579;51.672;7.834;2023-05-07T05:43:58;15.20;75.10
58809;DHT22;44579;51.672;7.834;2023-05-07T05:46:26;15.20;75.40
58809;DHT22;44579;51.672;7.834;2023-05-07T05:48:55;15.20;75.40
58809;DHT22;44579;51.672;7.834;2023-05-07T05:51:23;15.20;75.60
58809;DHT22;44579;51.672;7.834;2023-05-07T05:53:49;15.10;75.90
58809;DHT22;44579;51.672;7.834;2023-05-07T05:56:17;15.20;76.00
58809;DHT22;44579;51.672;7.834;2023-05-07T05:58:44;15.20;75.80
58809;DHT22;44579;51.672;7.834;2023-05-07T06:01:14;15.30;75.90
58809;DHT22;44579;51.672;7.834;2023-05-07T06:03:47;15.40;75.80
58809;DHT22;44579;51.672;7.834;2023-05-07T06:06:14;15.60;76.10
58809;DHT22;44579;51.672;7.834;2023-05-07T06:08:46;15.60;76.30
58809;DHT22;44579;51.672;7.834;2023-05-07T06:11:20;15.70;76.80
58809;DHT22;44579;51.672;7.834;2023-05-07T06:13:47;15.70;76.90
58809;DHT22;44579;51.672;7.834;2023-05-07T06:16:14;15.80;77.30
58809;DHT22;44579;51.672;7.834;2023-05-07T06:18:42;15.80;77.80
58809;DHT22;44579;51.672;7.834;2023-05-07T06:21:13;15.80;77.90
58809;DHT22;44579;51.672;7.834;2023-05-07T06:23:40;15.80;78.50
58809;DHT22;44579;51.672;7.834;2023-05-07T06:26:12;15.90;78.70
58809;DHT22;44579;51.672;7.834;2023-05-07T06:28:42;15.90;78.90
58809;DHT22;44579;51.672;7.834;2023-05-07T06:31:19;15.80;79.60
58809;DHT22;44579;51.672;7.834;2023-05-07T06:33:54;15.80;80.30
58809;DHT22;44579;51.672;7.834;2023-05-07T06:36:25;15.80;80.30
58809;DHT22;44579;51.672;7.834;2023-05-07T06:38:58;15.70;80.30
58809;DHT22;44579;51.672;7.834;2023-05-07T06:41:28;15.80;80.30
58809;DHT22;44579;51.672;7.834;2023-05-07T06:44:00;15.80;80.20
58809;DHT22;44579;51.672;7.834;2023-05-07T06:46:36;15.90;80.00
58809;DHT22;44579;51.672;7.834;2023-05-07T06:49:05;15.90;80.50
58809;DHT22;44579;51.672;7.834;2023-05-07T06:51:40;15.90;81.20
58809;DHT22;44579;51.672;7.834;2023-05-07T06:54:07;16.00;81.40
58809;DHT22;44579;51.672;7.834;2023-05-07T06:56:37;15.90;81.70
58809;DHT22;44579;51.672;7.834;2023-05-07T06:59:07;16.00;81.70
58809;DHT22;44579;51.672;7.834;2023-05-07T07:01:38;16.10;81.60
58809;DHT22;44579;51.672;7.834;2023-05-07T07:04:10;16.20;81.70
58809;DHT22;44579;51.672;7.834;2023-05-07T07:06:40;16.30;81.50
58809;DHT22;44579;51.672;7.834;2023-05-07T07:09:11;16.40;81.40
58809;DHT22;44579;51.672;7.834;2023-05-07T07:11:40;16.40;81.20
58809;DHT22;44579;51.672;7.834;2023-05-07T07:14:08;16.50;81.40
58809;DHT22;44579;51.672;7.834;2023-05-07T07:16:43;16.50;81.80
58809;DHT22;44579;51.672;7.834;2023-05-07T07:19:14;16.60;82.30
58809;DHT22;44579;51.672;7.834;2023-05-07T07:21:42;16.60;82.90
58809;DHT22;44579;51.672;7.834;2023-05-07T07:24:11;16.60;83.00
58809;DHT22;44579;51.672;7.834;2023-05-07T07:26:38;16.60;84.00
58809;DHT22;44579;51.672;7.834;2023-05-07T07:29:09;16.60;84.50
58809;DHT22;44579;51.672;7.834;2023-05-07T07:31:36;16.70;84.70
58809;DHT22;44579;51.672;7.834;2023-05-07T07:34:03;16.60;85.20
58809;DHT22;44579;51.672;7.834;2023-05-07T07:36:30;16.60;85.90
58809;DHT22;44579;51.672;7.834;2023-05-07T07:39:13;16.70;86.30
58809;DHT22;44579;51.672;7.834;2023-05-07T07:41:41;16.70;86.30
58809;DHT22;44579;51.672;7.834;2023-05-07T07:44:08;16.70;86.20
58809;DHT22;44579;51.672;7.834;2023-05-07T07:46:36;16.80;86.40
58809;DHT22;44579;51.672;7.834;2023-05-07T07:49:03;16.90;86.60
58809;DHT22;44579;51.672;7.834;2023-05-07T07:51:33;16.90;86.70
58809;DHT22;44579;51.672;7.834;2023-05-07T07:54:01;17.00;86.40
58809;DHT22;44579;51.672;7.834;2023-05-07T07:56:34;17.10;86.20
58809;DHT22;44579;51.672;7.834;2023-05-07T07:59:03;17.20;85.80
58809;DHT22;44579;51.672;7.834;2023-05-07T08:01:40;17.20;85.60
58809;DHT22;44579;51.672;7.834;2023-05-07T08:04:08;17.30;85.10
58809;DHT22;44579;51.672;7.834;2023-05-07T08:06:39;17.30;84.70
58809;DHT22;44579;51.672;7.834;2023-05-07T08:09:10;17.30;84.40
58809;DHT22;44579;51.672;7.834;2023-05-07T08:11:39;17.30;84.00
58809;DHT22;44579;51.672;7.834;2023-05-07T08:14:06;17.20;84.60
58809;DHT22;44579;51.672;7.834;2023-05-07T08:16:36;17.10;85.10
58809;DHT22;44579;51.672;7.834;2023-05-07T08:19:03;17.20;85.20
58809;DHT22;44579;51.672;7.834;2023-05-07T08:21:30;17.30;84.70
58809;DHT22;44579;51.672;7.834;2023-05-07T08:24:01;17.40;84.20
58809;DHT22;44579;51.672;7.834;2023-05-07T08:26:28;17.60;83.80
58809;DHT22;44579;51.672;7.834;2023-05-07T08:28:55;17.60;83.30
58809;DHT22;44579;51.672;7.834;2023-05-07T08:31:23;17.50;83.10
58809;DHT22;44579;51.672;7.834;2023-05-07T08:33:51;17.50;83.20
58809;DHT22;44579;51.672;7.834;2023-05-07T08:36:18;17.40;83.30
58809;DHT22;44579;51.672;7.834;2023-05-07T08:38:46;17.40;83.20
58809;DHT22;44579;51.672;7.834;2023-05-07T08:41:13;17.50;83.20
58809;DHT22;44579;51.672;7.834;2023-05-07T08:43:42;17.50;83.00
58809;DHT22;44579;51.672;7.834;2023-05-07T08:46:11;17.60;83.50
58809;DHT22;44579;51.672;7.834;2023-05-07T08:48:42;17.60;83.70
58809;DHT22;44579;51.672;7.834;2023-05-07T08:51:13;17.70;83.60
58809;DHT22;44579;51.672;7.834;2023-05-07T08:53:41;17.80;83.90
58809;DHT22;44579;51.672;7.834;2023-05-07T08:56:14;17.80;84.00
58809;DHT22;44579;51.672;7.834;2023-05-07T08:58:43;17.80;84.00
58809;DHT22;44579;51.672;7.834;2023-05-07T09:01:14;18.00;84.00
58809;DHT22;44579;51.672;7.834;2023-05-07T09:03:44;18.10;84.00
58809;DHT22;44579;51.672;7.834;2023-05-07T09:06:13;18.20;84.30
58809;DHT22;44579;51.672;7.834;2023-05-07T09:08:44;18.20;85.00
58809;DHT22;44579;51.672;7.834;2023-05-07T09:11:16;18.10;85.60
58809;DHT22;44579;51.672;7.834;2023-05-07T09:13:45;18.20;86.00
58809;DHT22;44579;51.672;7.834;2023-05-07T09:16:12;18.20;86.10
58809;DHT22;44579;51.672;7.834;2023-05-07T09:18:43;18.20;85.30
58809;DHT22;44579;51.672;7.834;2023-05-07T09:21:14;18.20;85.20
58809;DHT22;44579;51.672;7.834;2023-05-07T09:23:42;18.30;84.60
58809;DHT22;44579;51.672;7.834;2023-05-07T09:26:09;18.30;84.50
58809;DHT22;44579;51.672;7.834;2023-05-07T09:28:40;18.50;84.50
58809;DHT22;44579;51.672;7.834;2023-05-07T09:31:12;18.50;83.90
58809;DHT22;44579;51.672;7.834;2023-05-07T09:33:47;18.50;83.20
58809;DHT22;44579;51.672;7.834;2023-05-07T09:36:14;18.50;82.80
58809;DHT22;44579;51.672;7.834;2023-05-07T09:38:44;18.40;82.20
58809;DHT22;44579;51.672;7.834;2023-05-07T09:41:14;18.50;82.20
58809;DHT22;44579;51.672;7.834;2023-05-07T09:43:48;18.50;81.90
58809;DHT22;44579;51.672;7.834;2023-05-07T09:46:25;18.60;81.90
58809;DHT22;44579;51.672;7.834;2023-05-07T09:48:52;18.60;81.80
58809;DHT22;44579;51.672;7.834;2023-05-07T09:53:49;18.70;83.00
58809;DHT22;44579;51.672;7.834;2023-05-07T09:56:20;18.60;82.30
58809;DHT22;44579;51.672;7.834;2023-05-07T09:58:48;18.60;82.20
58809;DHT22;44579;51.672;7.834;2023-05-07T10:01:19;18.60;82.10
58809;DHT22;44579;51.672;7.834;2023-05-07T10:03:49;18.60;82.10
58809;DHT22;44579;51.672;7.834;2023-05-07T10:06:20;18.60;81.80
58809;DHT22;44579;51.672;7.834;2023-05-07T10:08:48;18.70;81.60
58809;DHT22;44579;51.672;7.834;2023-05-07T10:11:19;18.60;81.30
58809;DHT22;44579;51.672;7.834;2023-05-07T10:13:49;18.70;81.10
58809;DHT22;44579;51.672;7.834;2023-05-07T10:16:16;18.70;81.40
58809;DHT22;44579;51.672;7.834;2023-05-07T10:18:47;18.70;81.90
58809;DHT22;44579;51.672;7.834;2023-05-07T10:21:20;18.70;82.10
58809;DHT22;44579;51.672;7.834;2023-05-07T10:24:01;18.80;83.40
58809;DHT22;44579;51.672;7.834;2023-05-07T10:26:31;18.90;82.90
58809;DHT22;44579;51.672;7.834;2023-05-07T10:29:01;19.00;83.10
58809;DHT22;44579;51.672;7.834;2023-05-07T10:31:44;19.10;83.10
58809;DHT22;44579;51.672;7.834;2023-05-07T10:34:21;19.20;83.20
58809;DHT22;44579;51.672;7.834;2023-05-07T10:36:50;19.20;81.70
58809;DHT22;44579;51.672;7.834;2023-05-07T10:39:20;19.30;81.40
58809;DHT22;44579;51.672;7.834;2023-05-07T10:41:48;19.40;81.40
58809;DHT22;44579;51.672;7.834;2023-05-07T10:44:26;19.40;81.10
58809;DHT22;44579;51.672;7.834;2023-05-07T10:49:32;19.40;81.40
58809;DHT22;44579;51.672;7.834;2023-05-07T10:57:43;19.40;81.90
58809;DHT22;44579;51.672;7.834;2023-05-07T11:03:05;19.50;80.70
58809;DHT22;44579;51.672;7.834;2023-05-07T11:05:44;19.50;79.50
58809;DHT22;44579;51.672;7.834;2023-05-07T11:08:18;19.60;78.50
58809;DHT22;44579;51.672;7.834;2023-05-07T11:11:02;19.60;78.30
58809;DHT22;44579;51.672;7.834;2023-05-07T11:13:51;19.70;78.30
58809;DHT22;44579;51.672;7.834;2023-05-07T11:16:25;19.80;77.90
58809;DHT22;44579;51.672;7.834;2023-05-07T11:19:05;19.80;78.50
58809;DHT22;44579;51.672;7.834;2023-05-07T11:21:39;19.90;78.20
58809;DHT22;44579;51.672;7.834;2023-05-07T11:24:15;20.00;77.20
58809;DHT22;44579;51.672;7.834;2023-05-07T11:26:51;20.00;76.80
58809;DHT22;44579;51.672;7.834;2023-05-07T11:29:21;20.10;76.80
58809;DHT22;44579;51.672;7.834;2023-05-07T11:31:54;20.20;77.50
58809;DHT22;44579;51.672;7.834;2023-05-07T11:34:25;20.20;78.00
58809;DHT22;44579;51.672;7.834;2023-05-07T11:36:54;20.20;78.00
58809;DHT22;44579;51.672;7.834;2023-05-07T11:39:34;20.20;77.70
58809;DHT22;44579;51.672;7.834;2023-05-07T11:42:02;20.30;78.00
58809;DHT22;44579;51.672;7.834;2023-05-07T11:44:44;20.30;77.50
58809;DHT22;44579;51.672;7.834;2023-05-07T11:47:18;20.30;76.90
58809;DHT22;44579;51.672;7.834;2023-05-07T11:49:48;20.30;76.50
58809;DHT22;44579;51.672;7.834;2023-05-07T11:52:15;20.30;76.80
58809;DHT22;44579;51.672;7.834;2023-05-07T11:57:36;20.20;75.90
58809;DHT22;44579;51.672;7.834;2023-05-07T12:00:03;20.20;75.80
58809;DHT22;44579;51.672;7.834;2023-05-07T12:02:40;20.20;76.00
58809;DHT22;44579;51.672;7.834;2023-05-07T12:05:10;20.20;76.40
58809;DHT22;44579;51.672;7.834;2023-05-07T12:07:38;20.20;76.80
58809;DHT22;44579;51.672;7.834;2023-05-07T12:10:08;20.20;77.00
58809;DHT22;44579;51.672;7.834;2023-05-07T12:12:38;20.30;77.20
58809;DHT22;44579;51.672;7.834;2023-05-07T12:15:06;20.30;77.20
58809;DHT22;44579;51.672;7.834;2023-05-07T12:17:33;20.40;77.50
58809;DHT22;44579;51.672;7.834;2023-05-07T12:20:00;20.40;76.30
58809;DHT22;44579;51.672;7.834;2023-05-07T12:22:27;20.50;76.10
58809;DHT22;44579;51.672;7.834;2023-05-07T12:24:57;20.50;76.10
58809;DHT22;44579;51.672;7.834;2023-05-07T12:27:25;20.60;75.60
58809;DHT22;44579;51.672;7.834;2023-05-07T12:29:52;20.60;75.70
58809;DHT22;44579;51.672;7.834;2023-05-07T12:32:19;20.60;75.20
58809;DHT22;44579;51.672;7.834;2023-05-07T12:34:49;20.70;75.40
58809;DHT22;44579;51.672;7.834;2023-05-07T12:37:22;20.80;75.80
58809;DHT22;44579;51.672;7.834;2023-05-07T12:40:08;20.90;75.10
58809;DHT22;44579;51.672;7.834;2023-05-07T12:42:39;20.90;74.80
58809;DHT22;44579;51.672;7.834;2023-05-07T12:45:12;20.90;74.50
58809;DHT22;44579;51.672;7.834;2023-05-07T12:47:47;20.90;75.00
58809;DHT22;44579;51.672;7.834;2023-05-07T12:50:17;20.80;75.40
58809;DHT22;44579;51.672;7.834;2023-05-07T12:52:45;20.80;75.60
58809;DHT22;44579;51.672;7.834;2023-05-07T12:55:13;20.90;75.40
58809;DHT22;44579;51.672;7.834;2023-05-07T12:57:45;20.90;75.20
58809;DHT22;44579;51.672;7.834;2023-05-07T13:00:14;21.00;75.10
58809;DHT22;44579;51.672;7.834;2023-05-07T13:02:41;21.00;75.20
58809;DHT22;44579;51.672;7.834;2023-05-07T13:05:11;21.10;75.30
58809;DHT22;44579;51.672;7.834;2023-05-07T13:07:39;21.10;75.10
58809;DHT22;44579;51.672;7.834;2023-05-07T13:10:10;21.20;75.00
58809;DHT22;44579;51.672;7.834;2023-05-07T13:12:37;21.30;74.60
58809;DHT22;44579;51.672;7.834;2023-05-07T13:15:04;21.30;73.40
58809;DHT22;44579;51.672;7.834;2023-05-07T13:17:31;21.40;72.90
58809;DHT22;44579;51.672;7.834;2023-05-07T13:19:59;21.40;72.50
58809;DHT22;44579;51.672;7.834;2023-05-07T13:22:29;21.50;72.50
58809;DHT22;44579;51.672;7.834;2023-05-07T13:24:55;21.50;72.30
58809;DHT22;44579;51.672;7.834;2023-05-07T13:27:22;21.50;72.30
58809;DHT22;44579;51.672;7.834;2023-05-07T13:29:49;21.50;71.90
58809;DHT22;44579;51.672;7.834;2023-05-07T13:32:16;21.40;72.00
58809;DHT22;44579;51.672;7.834;2023-05-07T13:34:45;21.40;71.70
58809;DHT22;44579;51.672;7.834;2023-05-07T13:37:12;21.40;71.30
58809;DHT22;44579;51.672;7.834;2023-05-07T13:39:39;21.50;71.40
58809;DHT22;44579;51.672;7.834;2023-05-07T13:42:06;21.50;71.50
58809;DHT22;44579;51.672;7.834;2023-05-07T13:44:33;21.50;71.90
58809;DHT22;44579;51.672;7.834;2023-05-07T13:47:00;21.50;72.50
58809;DHT22;44579;51.672;7.834;2023-05-07T13:49:27;21.40;72.70
58809;DHT22;44579;51.672;7.834;2023-05-07T13:51:54;21.40;73.20
58809;DHT22;44579;51.672;7.834;2023-05-07T13:54:21;21.30;73.70
58809;DHT22;44579;51.672;7.834;2023-05-07T13:56:48;21.30;73.60
58809;DHT22;44579;51.672;7.834;2023-05-07T13:59:16;21.30;73.80
58809;DHT22;44579;51.672;7.834;2023-05-07T14:01:43;21.30;73.70
58809;DHT22;44579;51.672;7.834;2023-05-07T14:04:10;21.40;73.80
58809;DHT22;44579;51.672;7.834;2023-05-07T14:06:36;21.30;73.40
58809;DHT22;44579;51.672;7.834;2023-05-07T14:09:04;21.30;72.70
58809;DHT22;44579;51.672;7.834;2023-05-07T14:11:31;21.30;72.80
58809;DHT22;44579;51.672;7.834;2023-05-07T14:14:01;21.20;72.70
58809;DHT22;44579;51.672;7.834;2023-05-07T14:16:27;21.20;73.00
58809;DHT22;44579;51.672;7.834;2023-05-07T14:18:54;21.20;73.20
58809;DHT22;44579;51.672;7.834;2023-05-07T14:21:27;21.20;73.30
58809;DHT22;44579;51.672;7.834;2023-05-07T14:23:54;21.20;73.30
58809;DHT22;44579;51.672;7.834;2023-05-07T14:26:23;21.30;73.50
58809;DHT22;44579;51.672;7.834;2023-05-07T14:28:50;21.20;73.50
58809;DHT22;44579;51.672;7.834;2023-05-07T14:31:16;21.20;73.60
58809;DHT22;44579;51.672;7.834;2023-05-07T14:33:43;21.20;73.60
58809;DHT22;44579;51.672;7.834;2023-05-07T14:36:13;21.20;73.60
58809;DHT22;44579;51.672;7.834;2023-05-07T14:38:40;21.20;73.50
58809;DHT22;44579;51.672;7.834;2023-05-07T14:41:07;21.30;73.40
58809;DHT22;44579;51.672;7.834;2023-05-07T14:43:33;21.30;73.20
58809;DHT22;44579;51.672;7.834;2023-05-07T14:46:00;21.20;73.20
58809;DHT22;44579;51.672;7.834;2023-05-07T14:48:30;21.20;73.30
58809;DHT22;44579;51.672;7.834;2023-05-07T14:50:57;21.20;73.10
58809;DHT22;44579;51.672;7.834;2023-05-07T14:53:23;21.10;73.00
58809;DHT22;44579;51.672;7.834;2023-05-07T14:55:52;21.10;73.10
58809;DHT22;44579;51.672;7.834;2023-05-07T14:58:22;21.00;72.80
58809;DHT22;44579;51.672;7.834;2023-05-07T15:00:49;21.10;72.80
58809;DHT22;44579;51.672;7.834;2023-05-07T15:03:16;21.10;72.80
58809;DHT22;44579;51.672;7.834;2023-05-07T15:05:44;21.10;72.70
58809;DHT22;44579;51.672;7.834;2023-05-07T15:08:11;21.00;72.70
58809;DHT22;44579;51.672;7.834;2023-05-07T15:10:38;21.00;72.60
58809;DHT22;44579;51.672;7.834;2023-05-07T15:13:09;21.00;72.50
58809;DHT22;44579;51.672;7.834;2023-05-07T15:15:41;21.00;72.50
58809;DHT22;44579;51.672;7.834;2023-05-07T15:18:08;21.00;72.40
58809;DHT22;44579;51.672;7.834;2023-05-07T15:20:36;21.00;73.20
58809;DHT22;44579;51.672;7.834;2023-05-07T15:23:06;21.10;72.20
58809;DHT22;44579;51.672;7.834;2023-05-07T15:25:37;21.20;72.00
58809;DHT22;44579;51.672;7.834;2023-05-07T15:28:04;21.20;72.00
58809;DHT22;44579;51.672;7.834;2023-05-07T15:30:32;21.20;72.00
58809;DHT22;44579;51.672;7.834;2023-05-07T15:32:59;21.30;71.90
58809;DHT22;44579;51.672;7.834;2023-05-07T15:35:27;21.30;71.80
58809;DHT22;44579;51.672;7.834;2023-05-07T15:37:54;21.30;71.90
58809;DHT22;44579;51.672;7.834;2023-05-07T15:40:24;21.30;71.90
58809;DHT22;44579;51.672;7.834;2023-05-07T15:42:54;21.30;72.00
58809;DHT22;44579;51.672;7.834;2023-05-07T15:45:21;21.20;72.00
58809;DHT22;44579;51.672;7.834;2023-05-07T15:47:49;21.20;72.20
58809;DHT22;44579;51.672;7.834;2023-05-07T15:50:16;21.10;72.20
58809;DHT22;44579;51.672;7.834;2023-05-07T15:52:46;21.00;72.20
58809;DHT22;44579;51.672;7.834;2023-05-07T15:55:15;21.10;72.30
58809;DHT22;44579;51.672;7.834;2023-05-07T15:57:42;21.00;72.10
58809;DHT22;44579;51.672;7.834;2023-05-07T16:00:10;20.90;72.10